sensor_id;sensor_type;location;lat;lon;timestamp;temperature;humidity
37530;DHT22;23374;52.758;6.872;2024-03-02T00:01:41;7.90;99.90
37530;DHT22;23374;52.758;6.872;2024-03-02T00:04:04;7.90;99.90
37530;DHT22;23374;52.758;6.872;2024-03-02T00:06:27;7.90;99.90
37530;DHT22;23374;52.758;6.872;2024-03-02T00:08:48;7.90;99.90
37530;DHT22;23374;52.758;6.872;2024-03-02T00:11:10;7.90;99.90
37530;DHT22;23374;52.758;6.872;2024-03-02T00:13:32;7.90;99.90
37530;DHT22;23374;52.758;6.872;2024-03-02T00:15:55;7.90;99.90
37530;DHT22;23374;52.758;6.872;2024-03-02T00:18:30;8.00;99.90
37530;DHT22;23374;52.758;6.872;2024-03-02T00:20:57;8.00;99.90
37530;DHT22;23374;52.758;6.872;2024-03-02T00:23:18;8.00;99.90
37530;DHT22;23374;52.758;6.872;2024-03-02T00:25:42;8.00;99.90
37530;DHT22;23374;52.758;6.872;2024-03-02T00:28:04;8.00;99.90
37530;DHT22;23374;52.758;6.872;2024-03-02T00:31:19;7.90;99.90
37530;DHT22;23374;52.758;6.872;2024-03-02T00:33:48;7.90;99.90
37530;DHT22;23374;52.758;6.872;2024-03-02T00:36:10;8.00;99.90
37530;DHT22;23374;52.758;6.872;2024-03-02T00:38:32;7.90;99.90
37530;DHT22;23374;52.758;6.872;2024-03-02T00:40:52;8.00;99.90
37530;DHT22;23374;52.758;6.872;2024-03-02T00:44:46;8.00;99.90
37530;DHT22;23374;52.758;6.872;2024-03-02T00:47:07;8.00;99.90
37530;DHT22;23374;52.758;6.872;2024-03-02T00:49:28;8.00;99.90
37530;DHT22;23374;52.758;6.872;2024-03-02T00:51:53;8.00;99.90
37530;DHT22;23374;52.758;6.872;2024-03-02T00:54:14;8.00;99.90
37530;DHT22;23374;52.758;6.872;2024-03-02T00:56:35;8.10;99.90
37530;DHT22;23374;52.758;6.872;2024-03-02T00:58:56;8.10;99.90
37530;DHT22;23374;52.758;6.872;2024-03-02T01:01:17;8.10;99.90
37530;DHT22;23374;52.758;6.872;2024-03-02T01:03:38;8.10;99.90
37530;DHT22;23374;52.758;6.872;2024-03-02T01:05:58;8.10;99.90
37530;DHT22;23374;52.758;6.872;2024-03-02T01:08:18;8.10;99.90
37530;DHT22;23374;52.758;6.872;2024-03-02T01:10:39;8.10;99.90
37530;DHT22;23374;52.758;6.872;2024-03-02T01:13:00;8.10;99.90
37530;DHT22;23374;52.758;6.872;2024-03-02T01:15:20;8.20;99.90
37530;DHT22;23374;52.758;6.872;2024-03-02T01:17:41;8.10;99.90
37530;DHT22;23374;52.758;6.872;2024-03-02T01:20:01;8.10;99.90
37530;DHT22;23374;52.758;6.872;2024-03-02T01:22:23;8.10;99.90
37530;DHT22;23374;52.758;6.872;2024-03-02T01:24:45;8.10;99.90
37530;DHT22;23374;52.758;6.872;2024-03-02T01:27:06;8.10;99.90
37530;DHT22;23374;52.758;6.872;2024-03-02T01:29:26;8.20;99.90
37530;DHT22;23374;52.758;6.872;2024-03-02T01:31:47;8.20;99.90
37530;DHT22;23374;52.758;6.872;2024-03-02T01:34:08;8.20;99.90
37530;DHT22;23374;52.758;6.872;2024-03-02T01:36:30;8.20;99.90
37530;DHT22;23374;52.758;6.872;2024-03-02T01:38:50;8.20;99.90
37530;DHT22;23374;52.758;6.872;2024-03-02T01:41:10;8.20;99.90
37530;DHT22;23374;52.758;6.872;2024-03-02T01:43:31;8.20;99.90
37530;DHT22;23374;52.758;6.872;2024-03-02T01:45:52;8.30;99.90
37530;DHT22;23374;52.758;6.872;2024-03-02T01:48:13;8.30;99.90
37530;DHT22;23374;52.758;6.872;2024-03-02T01:50:35;8.30;99.90
37530;DHT22;23374;52.758;6.872;2024-03-02T01:52:56;8.30;99.90
37530;DHT22;23374;52.758;6.872;2024-03-02T01:55:17;8.30;99.90
37530;DHT22;23374;52.758;6.872;2024-03-02T01:57:38;8.30;99.90
37530;DHT22;23374;52.758;6.872;2024-03-02T01:59:58;8.30;99.90
37530;DHT22;23374;52.758;6.872;2024-03-02T02:02:19;8.40;99.90
37530;DHT22;23374;52.758;6.872;2024-03-02T02:04:48;8.40;99.90
37530;DHT22;23374;52.758;6.872;2024-03-02T02:07:10;8.40;99.90
37530;DHT22;23374;52.758;6.872;2024-03-02T02:09:30;8.40;99.90
37530;DHT22;23374;52.758;6.872;2024-03-02T02:11:51;8.40;99.90
37530;DHT22;23374;52.758;6.872;2024-03-02T02:14:12;8.30;99.90
37530;DHT22;23374;52.758;6.872;2024-03-02T02:16:32;8.40;99.90
37530;DHT22;23374;52.758;6.872;2024-03-02T02:18:53;8.40;99.90
37530;DHT22;23374;52.758;6.872;2024-03-02T02:21:13;8.40;99.90
37530;DHT22;23374;52.758;6.872;2024-03-02T02:23:34;8.40;99.90
37530;DHT22;23374;52.758;6.872;2024-03-02T02:25:54;8.40;99.90
37530;DHT22;23374;52.758;6.872;2024-03-02T02:28:14;8.40;99.90
37530;DHT22;23374;52.758;6.872;2024-03-02T02:30:34;8.40;99.90
37530;DHT22;23374;52.758;6.872;2024-03-02T02:32:55;8.40;99.90
37530;DHT22;23374;52.758;6.872;2024-03-02T02:35:15;8.50;99.90
37530;DHT22;23374;52.758;6.872;2024-03-02T02:37:35;8.50;99.90
37530;DHT22;23374;52.758;6.872;2024-03-02T02:39:57;8.40;99.90
37530;DHT22;23374;52.758;6.872;2024-03-02T02:42:17;8.40;99.90
37530;DHT22;23374;52.758;6.872;2024-03-02T02:44:37;8.40;99.90
37530;DHT22;23374;52.758;6.872;2024-03-02T02:46:58;8.40;99.90
37530;DHT22;23374;52.758;6.872;2024-03-02T02:49:18;8.40;99.90
37530;DHT22;23374;52.758;6.872;2024-03-02T02:51:38;8.40;99.90
37530;DHT22;23374;52.758;6.872;2024-03-02T02:53:59;8.40;99.90
37530;DHT22;23374;52.758;6.872;2024-03-02T02:56:19;8.40;99.90
37530;DHT22;23374;52.758;6.872;2024-03-02T02:58:40;8.50;99.90
37530;DHT22;23374;52.758;6.872;2024-03-02T03:01:01;8.50;99.90
37530;DHT22;23374;52.758;6.872;2024-03-02T03:03:22;8.50;99.90
37530;DHT22;23374;52.758;6.872;2024-03-02T03:05:42;8.50;99.90
37530;DHT22;23374;52.758;6.872;2024-03-02T03:08:02;8.50;99.90
37530;DHT22;23374;52.758;6.872;2024-03-02T03:10:23;8.50;99.90
37530;DHT22;23374;52.758;6.872;2024-03-02T03:12:45;8.50;99.90
37530;DHT22;23374;52.758;6.872;2024-03-02T03:15:08;8.50;99.90
37530;DHT22;23374;52.758;6.872;2024-03-02T03:17:28;8.50;99.90
37530;DHT22;23374;52.758;6.872;2024-03-02T03:19:50;8.60;99.90
37530;DHT22;23374;52.758;6.872;2024-03-02T03:22:10;8.60;99.90
37530;DHT22;23374;52.758;6.872;2024-03-02T03:24:31;8.60;99.90
37530;DHT22;23374;52.758;6.872;2024-03-02T03:26:53;8.60;99.90
37530;DHT22;23374;52.758;6.872;2024-03-02T03:29:13;8.60;99.90
37530;DHT22;23374;52.758;6.872;2024-03-02T03:31:33;8.60;99.90
37530;DHT22;23374;52.758;6.872;2024-03-02T03:33:53;8.60;99.90
37530;DHT22;23374;52.758;6.872;2024-03-02T03:36:13;8.60;99.90
37530;DHT22;23374;52.758;6.872;2024-03-02T03:38:33;8.60;99.90
37530;DHT22;23374;52.758;6.872;2024-03-02T03:40:54;8.60;99.90
37530;DHT22;23374;52.758;6.872;2024-03-02T03:43:15;8.60;99.90
37530;DHT22;23374;52.758;6.872;2024-03-02T03:45:35;8.60;99.90
37530;DHT22;23374;52.758;6.872;2024-03-02T03:47:56;8.60;99.90
37530;DHT22;23374;52.758;6.872;2024-03-02T03:50:16;8.50;99.90
37530;DHT22;23374;52.758;6.872;2024-03-02T03:52:37;8.40;99.90
37530;DHT22;23374;52.758;6.872;2024-03-02T03:54:57;8.40;99.90
37530;DHT22;23374;52.758;6.872;2024-03-02T03:57:17;8.30;99.90
37530;DHT22;23374;52.758;6.872;2024-03-02T03:59:38;8.30;99.90
37530;DHT22;23374;52.758;6.872;2024-03-02T04:01:58;8.30;99.90
37530;DHT22;23374;52.758;6.872;2024-03-02T04:04:18;8.30;99.90
37530;DHT22;23374;52.758;6.872;2024-03-02T04:06:38;8.30;99.90
37530;DHT22;23374;52.758;6.872;2024-03-02T04:08:59;8.30;99.90
37530;DHT22;23374;52.758;6.872;2024-03-02T04:11:19;8.20;99.90
37530;DHT22;23374;52.758;6.872;2024-03-02T04:13:40;8.20;99.90
37530;DHT22;23374;52.758;6.872;2024-03-02T04:16:00;8.20;99.90
37530;DHT22;23374;52.758;6.872;2024-03-02T04:18:21;8.20;1.00
37530;DHT22;23374;52.758;6.872;2024-03-02T04:20:42;8.20;1.00
37530;DHT22;23374;52.758;6.872;2024-03-02T04:23:02;8.10;1.00
37530;DHT22;23374;52.758;6.872;2024-03-02T04:25:23;8.10;1.00
37530;DHT22;23374;52.758;6.872;2024-03-02T04:27:43;8.10;1.00
37530;DHT22;23374;52.758;6.872;2024-03-02T04:30:06;8.10;1.00
37530;DHT22;23374;52.758;6.872;2024-03-02T04:32:27;8.10;1.00
37530;DHT22;23374;52.758;6.872;2024-03-02T04:34:47;8.10;1.00
37530;DHT22;23374;52.758;6.872;2024-03-02T04:37:09;8.10;1.00
37530;DHT22;23374;52.758;6.872;2024-03-02T04:39:30;8.10;1.00
37530;DHT22;23374;52.758;6.872;2024-03-02T04:41:50;8.10;1.00
37530;DHT22;23374;52.758;6.872;2024-03-02T04:44:10;8.10;1.00
37530;DHT22;23374;52.758;6.872;2024-03-02T04:46:32;8.10;1.00
37530;DHT22;23374;52.758;6.872;2024-03-02T04:48:52;8.10;1.00
37530;DHT22;23374;52.758;6.872;2024-03-02T04:51:15;8.10;1.00
37530;DHT22;23374;52.758;6.872;2024-03-02T04:53:35;8.10;1.00
37530;DHT22;23374;52.758;6.872;2024-03-02T04:55:56;8.00;1.00
37530;DHT22;23374;52.758;6.872;2024-03-02T04:58:35;8.10;1.00
37530;DHT22;23374;52.758;6.872;2024-03-02T05:00:56;8.10;1.00
37530;DHT22;23374;52.758;6.872;2024-03-02T05:03:16;8.00;1.00
37530;DHT22;23374;52.758;6.872;2024-03-02T05:05:36;8.00;1.00
37530;DHT22;23374;52.758;6.872;2024-03-02T05:07:58;8.00;1.00
37530;DHT22;23374;52.758;6.872;2024-03-02T05:10:19;8.00;1.00
37530;DHT22;23374;52.758;6.872;2024-03-02T05:12:39;8.00;1.00
37530;DHT22;23374;52.758;6.872;2024-03-02T05:15:19;7.90;1.00
37530;DHT22;23374;52.758;6.872;2024-03-02T05:17:40;7.90;1.00
37530;DHT22;23374;52.758;6.872;2024-03-02T05:20:04;7.80;1.00
37530;DHT22;23374;52.758;6.872;2024-03-02T05:22:25;7.80;1.00
37530;DHT22;23374;52.758;6.872;2024-03-02T05:24:45;7.80;1.00
37530;DHT22;23374;52.758;6.872;2024-03-02T05:27:05;7.70;1.00
37530;DHT22;23374;52.758;6.872;2024-03-02T05:29:27;7.70;1.00
37530;DHT22;23374;52.758;6.872;2024-03-02T05:31:48;7.70;1.00
37530;DHT22;23374;52.758;6.872;2024-03-02T05:34:09;7.60;1.00
37530;DHT22;23374;52.758;6.872;2024-03-02T05:36:29;7.60;1.00
37530;DHT22;23374;52.758;6.872;2024-03-02T05:38:49;7.60;1.00
37530;DHT22;23374;52.758;6.872;2024-03-02T05:41:09;7.60;1.00
37530;DHT22;23374;52.758;6.872;2024-03-02T05:43:30;7.60;1.00
37530;DHT22;23374;52.758;6.872;2024-03-02T05:45:50;7.50;1.00
37530;DHT22;23374;52.758;6.872;2024-03-02T05:48:11;7.60;1.00
37530;DHT22;23374;52.758;6.872;2024-03-02T05:50:31;7.60;1.00
37530;DHT22;23374;52.758;6.872;2024-03-02T05:52:51;7.60;1.00
37530;DHT22;23374;52.758;6.872;2024-03-02T05:55:12;7.60;1.00
37530;DHT22;23374;52.758;6.872;2024-03-02T05:57:33;7.60;1.00
37530;DHT22;23374;52.758;6.872;2024-03-02T06:02:51;7.60;1.00
37530;DHT22;23374;52.758;6.872;2024-03-02T06:05:12;7.60;1.00
37530;DHT22;23374;52.758;6.872;2024-03-02T06:07:33;7.50;1.00
37530;DHT22;23374;52.758;6.872;2024-03-02T06:09:53;7.50;1.00
37530;DHT22;23374;52.758;6.872;2024-03-02T06:12:13;7.50;1.00
37530;DHT22;23374;52.758;6.872;2024-03-02T06:14:33;7.50;1.00
37530;DHT22;23374;52.758;6.872;2024-03-02T06:16:54;7.50;1.00
37530;DHT22;23374;52.758;6.872;2024-03-02T06:19:14;7.40;1.00
37530;DHT22;23374;52.758;6.872;2024-03-02T06:21:34;7.40;1.00
37530;DHT22;23374;52.758;6.872;2024-03-02T06:23:55;7.40;1.00
37530;DHT22;23374;52.758;6.872;2024-03-02T06:26:16;7.40;1.00
37530;DHT22;23374;52.758;6.872;2024-03-02T06:28:37;7.40;1.00
37530;DHT22;23374;52.758;6.872;2024-03-02T06:30:57;7.40;1.00
37530;DHT22;23374;52.758;6.872;2024-03-02T06:33:17;7.40;1.00
37530;DHT22;23374;52.758;6.872;2024-03-02T06:35:37;7.50;1.00
37530;DHT22;23374;52.758;6.872;2024-03-02T06:37:59;7.50;1.00
37530;DHT22;23374;52.758;6.872;2024-03-02T06:40:19;7.50;1.00
37530;DHT22;23374;52.758;6.872;2024-03-02T06:42:41;7.50;1.00
37530;DHT22;23374;52.758;6.872;2024-03-02T06:45:02;7.60;1.00
37530;DHT22;23374;52.758;6.872;2024-03-02T06:47:23;7.60;1.00
37530;DHT22;23374;52.758;6.872;2024-03-02T06:49:44;7.60;1.00
37530;DHT22;23374;52.758;6.872;2024-03-02T06:52:04;7.60;1.00
37530;DHT22;23374;52.758;6.872;2024-03-02T06:54:25;7.60;1.00
37530;DHT22;23374;52.758;6.872;2024-03-02T06:56:45;7.60;1.00
37530;DHT22;23374;52.758;6.872;2024-03-02T06:59:05;7.60;1.00
37530;DHT22;23374;52.758;6.872;2024-03-02T07:01:25;7.70;1.00
37530;DHT22;23374;52.758;6.872;2024-03-02T07:03:46;7.70;1.00
37530;DHT22;23374;52.758;6.872;2024-03-02T07:06:07;7.70;1.00
37530;DHT22;23374;52.758;6.872;2024-03-02T07:08:27;7.70;1.00
37530;DHT22;23374;52.758;6.872;2024-03-02T07:10:47;7.80;1.00
37530;DHT22;23374;52.758;6.872;2024-03-02T07:13:07;7.70;1.00
37530;DHT22;23374;52.758;6.872;2024-03-02T07:15:28;7.70;1.00
37530;DHT22;23374;52.758;6.872;2024-03-02T07:18:10;7.70;1.00
37530;DHT22;23374;52.758;6.872;2024-03-02T07:20:31;7.80;1.00
37530;DHT22;23374;52.758;6.872;2024-03-02T07:22:51;7.70;1.00
37530;DHT22;23374;52.758;6.872;2024-03-02T07:25:11;7.70;1.00
37530;DHT22;23374;52.758;6.872;2024-03-02T07:27:32;7.70;1.00
37530;DHT22;23374;52.758;6.872;2024-03-02T07:29:53;7.70;1.00
37530;DHT22;23374;52.758;6.872;2024-03-02T07:32:14;7.70;1.00
37530;DHT22;23374;52.758;6.872;2024-03-02T07:34:34;7.80;1.00
37530;DHT22;23374;52.758;6.872;2024-03-02T07:36:55;7.80;1.00
37530;DHT22;23374;52.758;6.872;2024-03-02T07:39:16;7.80;1.00
37530;DHT22;23374;52.758;6.872;2024-03-02T07:41:36;7.80;1.00
37530;DHT22;23374;52.758;6.872;2024-03-02T07:43:57;7.90;1.00
37530;DHT22;23374;52.758;6.872;2024-03-02T07:46:17;7.90;1.00
37530;DHT22;23374;52.758;6.872;2024-03-02T07:48:37;7.90;1.00
37530;DHT22;23374;52.758;6.872;2024-03-02T07:50:58;7.90;1.00
37530;DHT22;23374;52.758;6.872;2024-03-02T07:53:19;7.90;1.00
37530;DHT22;23374;52.758;6.872;2024-03-02T07:55:39;7.90;1.00
37530;DHT22;23374;52.758;6.872;2024-03-02T07:58:01;7.90;1.00
37530;DHT22;23374;52.758;6.872;2024-03-02T08:00:23;7.90;1.00
37530;DHT22;23374;52.758;6.872;2024-03-02T08:02:43;8.00;1.00
37530;DHT22;23374;52.758;6.872;2024-03-02T08:05:04;7.90;1.00
37530;DHT22;23374;52.758;6.872;2024-03-02T08:07:24;8.00;1.00
37530;DHT22;23374;52.758;6.872;2024-03-02T08:09:45;8.00;1.00
37530;DHT22;23374;52.758;6.872;2024-03-02T08:12:06;8.00;1.00
37530;DHT22;23374;52.758;6.872;2024-03-02T08:14:27;8.00;1.00
37530;DHT22;23374;52.758;6.872;2024-03-02T08:16:47;8.10;1.00
37530;DHT22;23374;52.758;6.872;2024-03-02T08:19:08;8.10;1.00
37530;DHT22;23374;52.758;6.872;2024-03-02T08:21:29;8.10;1.00
37530;DHT22;23374;52.758;6.872;2024-03-02T08:23:51;8.10;1.00
37530;DHT22;23374;52.758;6.872;2024-03-02T08:26:12;8.20;1.00
37530;DHT22;23374;52.758;6.872;2024-03-02T08:28:32;8.20;1.00
37530;DHT22;23374;52.758;6.872;2024-03-02T08:30:53;8.20;1.00
37530;DHT22;23374;52.758;6.872;2024-03-02T08:33:13;8.30;1.00
37530;DHT22;23374;52.758;6.872;2024-03-02T08:35:33;8.30;1.00
37530;DHT22;23374;52.758;6.872;2024-03-02T08:37:56;8.30;1.00
37530;DHT22;23374;52.758;6.872;2024-03-02T08:40:16;8.30;1.00
37530;DHT22;23374;52.758;6.872;2024-03-02T08:42:37;8.40;1.00
37530;DHT22;23374;52.758;6.872;2024-03-02T08:44:57;8.50;1.00
37530;DHT22;23374;52.758;6.872;2024-03-02T08:47:18;8.50;1.00
37530;DHT22;23374;52.758;6.872;2024-03-02T08:49:38;8.60;1.00
37530;DHT22;23374;52.758;6.872;2024-03-02T08:51:59;8.70;1.00
37530;DHT22;23374;52.758;6.872;2024-03-02T08:54:19;8.80;1.00
37530;DHT22;23374;52.758;6.872;2024-03-02T08:56:40;8.90;1.00
37530;DHT22;23374;52.758;6.872;2024-03-02T08:59:00;8.90;1.00
37530;DHT22;23374;52.758;6.872;2024-03-02T09:01:21;9.00;1.00
37530;DHT22;23374;52.758;6.872;2024-03-02T09:03:41;9.10;1.00
37530;DHT22;23374;52.758;6.872;2024-03-02T09:06:04;9.20;1.00
37530;DHT22;23374;52.758;6.872;2024-03-02T09:08:25;9.20;99.90
37530;DHT22;23374;52.758;6.872;2024-03-02T09:10:45;9.20;99.90
37530;DHT22;23374;52.758;6.872;2024-03-02T09:13:06;9.20;99.90
37530;DHT22;23374;52.758;6.872;2024-03-02T09:15:26;9.20;1.00
37530;DHT22;23374;52.758;6.872;2024-03-02T09:17:47;9.30;1.00
37530;DHT22;23374;52.758;6.872;2024-03-02T09:20:08;9.40;1.00
37530;DHT22;23374;52.758;6.872;2024-03-02T09:22:29;9.40;99.90
37530;DHT22;23374;52.758;6.872;2024-03-02T09:24:50;9.50;99.90
37530;DHT22;23374;52.758;6.872;2024-03-02T09:27:10;9.50;99.90
37530;DHT22;23374;52.758;6.872;2024-03-02T09:29:31;9.50;99.90
37530;DHT22;23374;52.758;6.872;2024-03-02T09:31:51;9.60;99.90
37530;DHT22;23374;52.758;6.872;2024-03-02T09:34:12;9.60;99.90
37530;DHT22;23374;52.758;6.872;2024-03-02T09:36:34;9.70;99.90
37530;DHT22;23374;52.758;6.872;2024-03-02T09:38:55;9.70;99.90
37530;DHT22;23374;52.758;6.872;2024-03-02T09:41:15;9.70;99.90
37530;DHT22;23374;52.758;6.872;2024-03-02T09:43:36;9.70;99.90
37530;DHT22;23374;52.758;6.872;2024-03-02T09:45:56;9.80;99.90
37530;DHT22;23374;52.758;6.872;2024-03-02T09:48:16;9.80;99.90
37530;DHT22;23374;52.758;6.872;2024-03-02T09:50:39;9.80;99.90
37530;DHT22;23374;52.758;6.872;2024-03-02T09:52:59;9.80;99.90
37530;DHT22;23374;52.758;6.872;2024-03-02T09:55:20;9.80;99.90
37530;DHT22;23374;52.758;6.872;2024-03-02T09:57:41;9.80;99.90
37530;DHT22;23374;52.758;6.872;2024-03-02T10:00:03;9.90;99.90
37530;DHT22;23374;52.758;6.872;2024-03-02T10:02:23;10.00;99.90
37530;DHT22;23374;52.758;6.872;2024-03-02T10:04:43;10.10;99.90
37530;DHT22;23374;52.758;6.872;2024-03-02T10:07:18;10.20;99.90
37530;DHT22;23374;52.758;6.872;2024-03-02T10:09:41;10.20;99.90
37530;DHT22;23374;52.758;6.872;2024-03-02T10:12:06;10.30;99.90
37530;DHT22;23374;52.758;6.872;2024-03-02T10:14:27;10.40;99.90
37530;DHT22;23374;52.758;6.872;2024-03-02T10:16:48;10.40;26.80
37530;DHT22;23374;52.758;6.872;2024-03-02T10:20:25;10.50;99.90
37530;DHT22;23374;52.758;6.872;2024-03-02T10:22:45;10.50;16.10
37530;DHT22;23374;52.758;6.872;2024-03-02T10:25:06;10.50;99.90
37530;DHT22;23374;52.758;6.872;2024-03-02T10:27:27;10.50;99.90
37530;DHT22;23374;52.758;6.872;2024-03-02T10:29:49;10.50;99.90
37530;DHT22;23374;52.758;6.872;2024-03-02T10:32:10;10.40;99.90
37530;DHT22;23374;52.758;6.872;2024-03-02T10:34:31;10.40;99.90
37530;DHT22;23374;52.758;6.872;2024-03-02T10:36:52;10.50;99.90
37530;DHT22;23374;52.758;6.872;2024-03-02T10:39:13;10.50;99.90
37530;DHT22;23374;52.758;6.872;2024-03-02T10:41:37;10.60;99.00
37530;DHT22;23374;52.758;6.872;2024-03-02T10:43:58;10.60;98.80
37530;DHT22;23374;52.758;6.872;2024-03-02T10:46:20;10.70;47.90
37530;DHT22;23374;52.758;6.872;2024-03-02T10:48:41;10.80;53.20
37530;DHT22;23374;52.758;6.872;2024-03-02T10:51:04;10.80;1.00
37530;DHT22;23374;52.758;6.872;2024-03-02T10:53:24;10.80;8.60
37530;DHT22;23374;52.758;6.872;2024-03-02T10:55:49;10.90;1.00
37530;DHT22;23374;52.758;6.872;2024-03-02T10:58:14;10.90;12.80
37530;DHT22;23374;52.758;6.872;2024-03-02T11:00:38;11.00;1.00
37530;DHT22;23374;52.758;6.872;2024-03-02T11:03:09;10.90;1.00
37530;DHT22;23374;52.758;6.872;2024-03-02T11:05:34;10.90;1.00
37530;DHT22;23374;52.758;6.872;2024-03-02T11:08:18;10.90;1.00
37530;DHT22;23374;52.758;6.872;2024-03-02T11:11:17;10.90;1.00
37530;DHT22;23374;52.758;6.872;2024-03-02T11:13:42;10.90;1.00
37530;DHT22;23374;52.758;6.872;2024-03-02T11:16:14;10.90;1.00
37530;DHT22;23374;52.758;6.872;2024-03-02T11:18:40;11.00;1.00
37530;DHT22;23374;52.758;6.872;2024-03-02T11:21:02;11.00;23.30
37530;DHT22;23374;52.758;6.872;2024-03-02T11:23:34;11.10;1.00
37530;DHT22;23374;52.758;6.872;2024-03-02T11:25:55;11.10;1.00
37530;DHT22;23374;52.758;6.872;2024-03-02T11:28:15;11.10;37.70
37530;DHT22;23374;52.758;6.872;2024-03-02T11:30:57;11.20;22.10
37530;DHT22;23374;52.758;6.872;2024-03-02T11:33:23;11.30;1.00
37530;DHT22;23374;52.758;6.872;2024-03-02T11:35:45;11.30;1.00
37530;DHT22;23374;52.758;6.872;2024-03-02T11:38:10;11.40;1.00
37530;DHT22;23374;52.758;6.872;2024-03-02T11:40:31;11.40;1.00
37530;DHT22;23374;52.758;6.872;2024-03-02T11:42:53;11.50;1.00
37530;DHT22;23374;52.758;6.872;2024-03-02T11:45:17;11.60;1.00
37530;DHT22;23374;52.758;6.872;2024-03-02T11:47:38;11.60;1.00
37530;DHT22;23374;52.758;6.872;2024-03-02T11:49:59;11.70;1.00
37530;DHT22;23374;52.758;6.872;2024-03-02T11:52:19;11.70;1.00
37530;DHT22;23374;52.758;6.872;2024-03-02T11:54:42;11.70;1.00
37530;DHT22;23374;52.758;6.872;2024-03-02T11:57:10;11.70;1.00
37530;DHT22;23374;52.758;6.872;2024-03-02T11:59:30;11.70;1.00
37530;DHT22;23374;52.758;6.872;2024-03-02T12:01:50;11.70;1.00
37530;DHT22;23374;52.758;6.872;2024-03-02T12:04:11;11.80;1.00
37530;DHT22;23374;52.758;6.872;2024-03-02T12:06:31;11.80;99.90
37530;DHT22;23374;52.758;6.872;2024-03-02T12:08:53;11.80;99.90
37530;DHT22;23374;52.758;6.872;2024-03-02T12:11:15;11.90;1.00
37530;DHT22;23374;52.758;6.872;2024-03-02T12:13:35;11.90;1.00
37530;DHT22;23374;52.758;6.872;2024-03-02T12:15:56;12.00;99.90
37530;DHT22;23374;52.758;6.872;2024-03-02T12:18:17;12.10;99.90
37530;DHT22;23374;52.758;6.872;2024-03-02T12:20:39;12.10;99.90
37530;DHT22;23374;52.758;6.872;2024-03-02T12:23:02;12.10;99.90
37530;DHT22;23374;52.758;6.872;2024-03-02T12:25:24;12.20;1.00
37530;DHT22;23374;52.758;6.872;2024-03-02T12:27:45;12.20;99.90
37530;DHT22;23374;52.758;6.872;2024-03-02T12:30:07;12.20;99.90
37530;DHT22;23374;52.758;6.872;2024-03-02T12:32:31;12.30;99.90
37530;DHT22;23374;52.758;6.872;2024-03-02T12:34:51;12.30;99.90
37530;DHT22;23374;52.758;6.872;2024-03-02T12:37:12;12.30;99.90
37530;DHT22;23374;52.758;6.872;2024-03-02T12:39:33;12.30;99.90
37530;DHT22;23374;52.758;6.872;2024-03-02T12:41:53;12.30;99.90
37530;DHT22;23374;52.758;6.872;2024-03-02T12:44:15;12.30;99.90
37530;DHT22;23374;52.758;6.872;2024-03-02T12:46:36;12.30;99.90
37530;DHT22;23374;52.758;6.872;2024-03-02T12:48:58;12.40;99.90
37530;DHT22;23374;52.758;6.872;2024-03-02T12:51:19;12.40;1.00
37530;DHT22;23374;52.758;6.872;2024-03-02T12:53:39;12.40;99.90
37530;DHT22;23374;52.758;6.872;2024-03-02T12:56:00;12.40;99.90
37530;DHT22;23374;52.758;6.872;2024-03-02T12:58:22;12.50;99.90
37530;DHT22;23374;52.758;6.872;2024-03-02T13:00:42;12.50;99.90
37530;DHT22;23374;52.758;6.872;2024-03-02T13:03:03;12.50;99.90
37530;DHT22;23374;52.758;6.872;2024-03-02T13:05:24;12.60;99.90
37530;DHT22;23374;52.758;6.872;2024-03-02T13:07:48;12.50;99.90
37530;DHT22;23374;52.758;6.872;2024-03-02T13:10:08;12.50;1.00
37530;DHT22;23374;52.758;6.872;2024-03-02T13:12:30;12.60;99.90
37530;DHT22;23374;52.758;6.872;2024-03-02T13:14:54;12.50;99.90
37530;DHT22;23374;52.758;6.872;2024-03-02T13:17:14;12.50;99.90
37530;DHT22;23374;52.758;6.872;2024-03-02T13:19:35;12.60;99.90
37530;DHT22;23374;52.758;6.872;2024-03-02T13:21:55;12.60;99.90
37530;DHT22;23374;52.758;6.872;2024-03-02T13:24:17;12.60;1.00
37530;DHT22;23374;52.758;6.872;2024-03-02T13:26:37;12.70;1.00
37530;DHT22;23374;52.758;6.872;2024-03-02T13:28:58;12.70;99.90
37530;DHT22;23374;52.758;6.872;2024-03-02T13:31:18;12.70;99.90
37530;DHT22;23374;52.758;6.872;2024-03-02T13:33:38;12.70;99.90
37530;DHT22;23374;52.758;6.872;2024-03-02T13:35:58;12.70;99.90
37530;DHT22;23374;52.758;6.872;2024-03-02T13:38:20;12.70;99.90
37530;DHT22;23374;52.758;6.872;2024-03-02T13:40:40;12.70;99.90
37530;DHT22;23374;52.758;6.872;2024-03-02T13:43:03;12.80;99.90
37530;DHT22;23374;52.758;6.872;2024-03-02T13:45:23;12.80;99.90
37530;DHT22;23374;52.758;6.872;2024-03-02T13:47:44;12.80;99.90
37530;DHT22;23374;52.758;6.872;2024-03-02T13:50:05;12.80;99.90
37530;DHT22;23374;52.758;6.872;2024-03-02T13:52:27;12.90;99.90
37530;DHT22;23374;52.758;6.872;2024-03-02T13:54:48;12.90;1.00
37530;DHT22;23374;52.758;6.872;2024-03-02T13:57:09;12.80;99.90
37530;DHT22;23374;52.758;6.872;2024-03-02T13:59:30;12.80;1.00
37530;DHT22;23374;52.758;6.872;2024-03-02T14:01:51;12.90;1.00
37530;DHT22;23374;52.758;6.872;2024-03-02T14:04:11;12.90;1.00
37530;DHT22;23374;52.758;6.872;2024-03-02T14:06:33;13.00;99.90
37530;DHT22;23374;52.758;6.872;2024-03-02T14:08:53;13.00;99.90
37530;DHT22;23374;52.758;6.872;2024-03-02T14:11:14;13.00;1.00
37530;DHT22;23374;52.758;6.872;2024-03-02T14:13:35;12.90;99.90
37530;DHT22;23374;52.758;6.872;2024-03-02T14:15:55;12.90;99.90
37530;DHT22;23374;52.758;6.872;2024-03-02T14:18:16;13.00;1.00
37530;DHT22;23374;52.758;6.872;2024-03-02T14:20:36;12.90;99.90
37530;DHT22;23374;52.758;6.872;2024-03-02T14:22:58;12.90;99.90
37530;DHT22;23374;52.758;6.872;2024-03-02T14:25:19;12.90;99.90
37530;DHT22;23374;52.758;6.872;2024-03-02T14:27:39;12.90;99.90
37530;DHT22;23374;52.758;6.872;2024-03-02T14:30:00;12.90;1.00
37530;DHT22;23374;52.758;6.872;2024-03-02T14:32:20;12.90;1.00
37530;DHT22;23374;52.758;6.872;2024-03-02T14:34:41;12.90;1.00
37530;DHT22;23374;52.758;6.872;2024-03-02T14:37:01;12.90;1.00
37530;DHT22;23374;52.758;6.872;2024-03-02T14:39:23;12.90;1.00
37530;DHT22;23374;52.758;6.872;2024-03-02T14:41:43;12.90;99.90
37530;DHT22;23374;52.758;6.872;2024-03-02T14:44:03;12.90;1.00
37530;DHT22;23374;52.758;6.872;2024-03-02T14:46:24;12.90;1.00
37530;DHT22;23374;52.758;6.872;2024-03-02T14:48:46;12.90;1.00
37530;DHT22;23374;52.758;6.872;2024-03-02T14:51:07;12.90;99.90
37530;DHT22;23374;52.758;6.872;2024-03-02T14:53:27;12.90;99.90
37530;DHT22;23374;52.758;6.872;2024-03-02T14:55:48;12.90;1.00
37530;DHT22;23374;52.758;6.872;2024-03-02T14:58:10;12.90;1.00
37530;DHT22;23374;52.758;6.872;2024-03-02T15:00:30;12.90;1.00
37530;DHT22;23374;52.758;6.872;2024-03-02T15:02:51;13.00;1.00
37530;DHT22;23374;52.758;6.872;2024-03-02T15:05:11;13.00;1.00
37530;DHT22;23374;52.758;6.872;2024-03-02T15:07:32;13.00;99.90
37530;DHT22;23374;52.758;6.872;2024-03-02T15:09:52;13.10;1.00
37530;DHT22;23374;52.758;6.872;2024-03-02T15:12:12;13.20;1.00
37530;DHT22;23374;52.758;6.872;2024-03-02T15:14:34;13.30;99.90
37530;DHT22;23374;52.758;6.872;2024-03-02T15:16:54;13.30;1.00